Time;durP1;ratioP1;P1;durP2;ratioP2;P2;SDS_P1;SDS_P2;PMS_P1;PMS_P2;Temp;Humidity;BMP_temperature;BMP_pressure;BME280_temperature;BME280_humidity;BME280_pressure;Samples;Min_cycle;Max_cycle;Signal;HPM_P1;HPM_P2
2021/01/29 00:01:48;;;;;;;49.80;21.77;;;;;;;28.68;52.84;101206.13;5059902;27;66726;-31
2021/01/29 00:04:19;;;;;;;48.95;21.58;;;;;;;28.78;52.65;101201.22;5076136;27;69515;-34
2021/01/29 00:06:50;;;;;;;48.67;21.58;;;;;;;28.64;52.77;101194.03;5060769;27;65574;-31
2021/01/29 00:09:20;;;;;;;59.78;22.40;;;;;;;28.68;53.34;101217.75;5064320;27;69710;-32
2021/01/29 00:11:51;;;;;;;39.75;20.85;;;;;;;28.69;53.14;101218.56;5051384;28;67053;-31
2021/01/29 00:14:21;;;;;;;38.50;21.00;;;;;;;28.68;53.27;101230.41;5064908;27;69130;-31
2021/01/29 00:16:52;;;;;;;40.25;23.05;;;;;;;28.68;53.19;101227.72;5070065;27;65050;-30
2021/01/29 00:19:23;;;;;;;50.33;22.92;;;;;;;28.70;53.21;101231.88;5064233;28;70194;-32
2021/01/29 00:21:53;;;;;;;48.42;22.65;;;;;;;28.79;53.08;101240.66;5067174;27;65222;-29
2021/01/29 00:24:24;;;;;;;46.63;23.45;;;;;;;28.94;52.69;101233.25;5066470;27;69937;-31
2021/01/29 00:26:55;;;;;;;59.97;25.13;;;;;;;28.89;51.18;101241.16;5064371;27;65636;-32
2021/01/29 00:29:25;;;;;;;63.45;25.50;;;;;;;28.90;51.64;101242.81;5072469;28;70317;-30
2021/01/29 00:31:56;;;;;;;59.47;24.65;;;;;;;28.86;51.81;101241.56;5058895;27;64647;-31
2021/01/29 00:34:27;;;;;;;47.55;24.40;;;;;;;28.95;52.01;101245.75;5055279;28;69931;-30
2021/01/29 00:36:58;;;;;;;47.95;24.55;;;;;;;28.97;52.48;101248.25;5074994;28;66588;-30
2021/01/29 00:39:29;;;;;;;45.63;24.90;;;;;;;28.98;52.39;101246.41;5067548;27;70267;-30
2021/01/29 00:41:59;;;;;;;50.55;23.58;;;;;;;29.01;52.35;101243.28;5068108;28;65788;-31
2021/01/29 00:44:30;;;;;;;43.08;23.00;;;;;;;28.93;52.58;101245.09;5075900;27;70295;-31
2021/01/29 00:47:00;;;;;;;42.58;23.08;;;;;;;29.03;52.10;101246.59;5070039;28;65481;-30
2021/01/29 00:49:31;;;;;;;35.28;22.48;;;;;;;29.02;52.20;101250.34;5063194;27;70774;-31
2021/01/29 00:52:02;;;;;;;49.55;26.00;;;;;;;28.91;50.32;101260.66;5054385;28;65637;-30
2021/01/29 00:54:33;;;;;;;64.32;28.30;;;;;;;28.83;49.16;101257.28;5069700;28;69781;-30
2021/01/29 00:57:04;;;;;;;56.00;27.13;;;;;;;28.76;48.59;101262.66;5058477;28;66068;-29
2021/01/29 00:59:34;;;;;;;50.25;27.52;;;;;;;28.59;48.97;101272.09;5058752;28;68264;-30
2021/01/29 01:02:12;;;;;;;47.45;26.20;;;;;;;28.56;49.09;101272.47;5059708;28;65767;-30
2021/01/29 01:04:42;;;;;;;50.17;27.88;;;;;;;28.56;48.91;101273.31;5077242;28;69993;-29
2021/01/29 01:07:14;;;;;;;51.55;26.88;;;;;;;28.59;48.95;101280.19;5056523;28;67136;-31
2021/01/29 01:10:06;;;;;;;43.67;27.38;;;;;;;28.57;48.90;101274.13;5071841;28;69924;-31
2021/01/29 01:12:59;;;;;;;48.72;25.40;;;;;;;28.54;49.29;101277.22;5067248;28;65426;-31
2021/01/29 01:15:43;;;;;;;43.97;25.05;;;;;;;28.56;49.56;101275.19;5061158;28;70083;-30
2021/01/29 01:18:14;;;;;;;52.40;26.50;;;;;;;28.57;49.50;101282.25;5054488;28;66407;-30
2021/01/29 01:21:11;;;;;;;49.70;25.83;;;;;;;28.58;49.36;101283.91;5056518;28;70296;-30
2021/01/29 01:23:45;;;;;;;48.25;26.38;;;;;;;28.55;49.63;101270.78;5059057;28;66475;-33
2021/01/29 01:26:16;;;;;;;46.80;25.40;;;;;;;28.60;49.58;101284.53;5058499;28;68815;-30
2021/01/29 01:29:07;;;;;;;44.85;25.25;;;;;;;28.61;49.24;101286.19;5054608;28;65506;-30
2021/01/29 01:31:38;;;;;;;37.20;24.55;;;;;;;28.63;49.39;101278.75;5056531;28;69154;-32
2021/01/29 01:34:28;;;;;;;46.80;25.55;;;;;;;28.58;49.54;101281.19;5074849;28;65606;-33
2021/01/29 01:37:14;;;;;;;46.33;24.98;;;;;;;28.64;49.44;101293.91;5060610;27;70108;-31
2021/01/29 01:40:15;;;;;;;46.10;24.60;;;;;;;28.69;49.32;101294.16;5060315;27;65472;-31
2021/01/29 01:42:46;;;;;;;39.17;24.55;;;;;;;28.69;49.36;101284.19;5057787;28;69999;-30
2021/01/29 01:45:29;;;;;;;42.00;25.27;;;;;;;28.64;49.32;101288.50;5060017;28;66059;-30
2021/01/29 01:48:22;;;;;;;43.00;23.92;;;;;;;28.47;49.20;101264.53;5077105;28;69912;-35
2021/01/29 01:51:34;;;;;;;39.85;23.80;;;;;;;28.53;49.11;101257.50;5071196;27;65201;-30
2021/01/29 01:54:23;;;;;;;36.17;24.25;;;;;;;28.64;49.44;101280.41;5078605;28;70102;-31
2021/01/29 01:56:58;;;;;;;40.63;24.73;;;;;;;28.57;49.68;101279.53;5075393;27;67114;-30
2021/01/29 01:59:36;;;;;;;33.78;23.83;;;;;;;28.65;49.11;101287.50;5076821;28;69335;-32
2021/01/29 02:02:31;;;;;;;37.15;24.00;;;;;;;28.72;49.20;101304.56;5067138;28;66828;-32
2021/01/29 02:05:24;;;;;;;34.00;23.25;;;;;;;28.72;49.35;101304.56;5078127;27;69878;-30
2021/01/29 02:08:22;;;;;;;34.00;23.77;;;;;;;28.74;49.56;101297.09;5073672;28;65846;-31
2021/01/29 02:11:15;;;;;;;29.80;22.42;;;;;;;28.64;48.95;101272.31;5066294;28;69940;-31
2021/01/29 02:14:03;;;;;;;37.42;21.60;;;;;;;28.94;46.32;101292.69;5057756;28;66085;-30
2021/01/29 02:17:02;;;;;;;36.13;21.00;;;;;;;29.03;45.60;101284.41;5068038;27;69961;-31
2021/01/29 02:20:13;;;;;;;39.63;22.38;;;;;;;28.94;45.50;101303.47;5074046;27;65563;-31
2021/01/29 02:22:49;;;;;;;52.03;22.75;;;;;;;29.04;45.60;101303.19;5055159;28;69792;-30
2021/01/29 02:26:05;;;;;;;42.15;20.13;;;;;;;29.04;44.81;101296.94;5072006;28;65457;-30
2021/01/29 02:29:07;;;;;;;36.80;19.80;;;;;;;29.05;45.11;101304.00;5052403;28;69232;-30
2021/01/29 02:32:02;;;;;;;40.63;19.70;;;;;;;29.09;44.78;101299.88;5063649;28;66358;-31
2021/01/29 02:35:12;;;;;;;42.95;19.88;;;;;;;29.18;44.50;101301.41;5047640;28;70046;-30
2021/01/29 02:38:18;;;;;;;26.88;17.15;;;;;;;29.29;44.42;101298.13;5029071;27;65117;-29
2021/01/29 02:41:15;;;;;;;42.58;18.92;;;;;;;29.22;44.51;101297.25;5045189;28;70116;-30
2021/01/29 02:44:22;;;;;;;39.67;18.00;;;;;;;29.04;44.52;101294.25;5059245;28;65301;-31
2021/01/29 02:47:24;;;;;;;42.90;18.30;;;;;;;29.10;44.41;101296.16;5070210;27;69911;-31
2021/01/29 02:50:36;;;;;;;39.63;21.25;;;;;;;29.05;45.04;101299.44;5071759;27;66347;-32
2021/01/29 02:53:30;;;;;;;39.85;21.75;;;;;;;29.25;44.89;101288.75;5048305;28;69830;-31
2021/01/29 02:57:00;;;;;;;45.78;21.30;;;;;;;29.27;43.73;101297.50;5036949;28;66439;-30
2021/01/29 03:00:15;;;;;;;42.70;20.60;;;;;;;29.00;44.64;101244.31;5068546;28;70133;-32
2021/01/29 03:03:41;;;;;;;38.40;19.92;;;;;;;29.30;44.16;101290.84;5063677;28;66091;-30
2021/01/29 03:06:46;;;;;;;37.63;21.13;;;;;;;29.35;44.14;101289.22;5009290;28;70087;-29
2021/01/29 03:09:29;;;;;;;37.10;20.13;;;;;;;29.43;44.56;101295.50;5063076;28;66208;-31
2021/01/29 03:12:30;;;;;;;37.92;20.90;;;;;;;29.40;43.93;101281.34;5078169;28;70684;-30
2021/01/29 03:15:21;;;;;;;48.50;24.13;;;;;;;29.45;44.11;101278.06;5079764;28;66063;-30
2021/01/29 03:18:18;;;;;;;59.87;24.00;;;;;;;29.51;44.17;101279.13;5079348;27;70531;-31
2021/01/29 03:21:15;;;;;;;46.40;22.20;;;;;;;29.55;44.61;101277.66;5039718;27;64932;-31
2021/01/29 03:24:33;;;;;;;44.58;21.63;;;;;;;29.54;44.62;101276.84;5088420;27;70118;-30
2021/01/29 03:27:26;;;;;;;36.25;20.95;;;;;;;29.42;43.68;101255.97;5075144;28;65436;-30
2021/01/29 03:30:19;;;;;;;30.23;19.73;;;;;;;29.59;43.76;101278.94;5072232;27;70450;-31
2021/01/29 03:33:11;;;;;;;40.13;19.88;;;;;;;29.61;43.81;101271.44;5071063;27;65388;-30
2021/01/29 03:36:10;;;;;;;44.05;19.48;;;;;;;29.56;43.72;101257.69;5015916;28;69904;-29
2021/01/29 03:39:08;;;;;;;35.80;18.85;;;;;;;29.72;43.77;101262.78;5062100;28;66935;-30
2021/01/29 03:42:15;;;;;;;55.50;19.38;;;;;;;29.74;43.35;101257.19;5073854;27;69260;-30
2021/01/29 03:45:13;;;;;;;41.17;19.00;;;;;;;29.77;43.26;101259.47;5072426;27;66213;-30
2021/01/29 03:48:05;;;;;;;43.38;18.63;;;;;;;29.75;43.21;101262.38;5074992;28;69657;-30
2021/01/29 03:51:07;;;;;;;28.27;16.88;;;;;;;29.80;43.50;101265.28;5060034;27;65800;-30
2021/01/29 03:54:21;;;;;;;34.17;18.10;;;;;;;29.86;42.74;101257.41;5074234;28;70033;-30
2021/01/29 03:57:33;;;;;;;39.35;16.63;;;;;;;29.88;43.08;101255.34;5071049;27;65399;-30
2021/01/29 04:00:36;;;;;;;36.95;18.40;;;;;;;29.92;43.20;101252.03;5070327;27;70251;-30
2021/01/29 04:03:39;;;;;;;44.72;17.70;;;;;;;29.92;43.14;101251.19;5078230;28;66780;-31
2021/01/29 04:06:34;;;;;;;37.85;18.27;;;;;;;29.91;43.42;101239.53;5074176;28;69516;-31
2021/01/29 04:09:32;;;;;;;44.22;19.10;;;;;;;29.95;43.57;101237.25;5073477;28;65423;-31
2021/01/29 04:12:23;;;;;;;33.35;18.83;;;;;;;29.96;42.91;101239.75;5074880;28;70849;-30
2021/01/29 04:15:20;;;;;;;;;;;;;;;30.00;42.91;101232.88;5078355;28;64795;-31
2021/01/29 04:17:53;;;;;;;31.85;17.23;;;;;;;30.07;42.56;101222.09;5079342;28;70284;-30
2021/01/29 04:20:40;;;;;;;36.15;17.77;;;;;;;30.05;42.26;101214.16;5067425;27;66003;-31
2021/01/29 04:23:24;;;;;;;30.90;16.33;;;;;;;30.15;42.77;101224.59;5079087;28;69921;-31
2021/01/29 04:26:18;;;;;;;28.25;16.33;;;;;;;30.13;42.59;101221.25;5079554;28;66925;-30
2021/01/29 04:29:01;;;;;;;24.70;15.13;;;;;;;30.15;42.53;101224.59;5070489;28;71052;-31
2021/01/29 04:31:33;;;;;;;27.07;14.27;;;;;;;30.21;41.44;101212.94;5070895;27;65732;-31
2021/01/29 04:34:12;;;;;;;30.70;14.00;;;;;;;30.30;41.70;101210.03;5080234;27;69288;-31
2021/01/29 04:36:46;;;;;;;31.17;16.08;;;;;;;30.28;41.71;101211.09;5069667;28;65228;-29
2021/01/29 04:39:23;;;;;;;29.45;16.00;;;;;;;30.35;41.65;101218.38;5079000;28;69787;-32
2021/01/29 04:42:12;;;;;;;33.08;16.33;;;;;;;30.35;42.02;101210.25;5072007;28;66627;-31
2021/01/29 04:44:54;;;;;;;22.00;15.45;;;;;;;30.44;41.49;101200.88;5076315;27;69309;-32
2021/01/29 04:47:36;;;;;;;24.65;14.82;;;;;;;30.55;41.75;101197.53;5071207;28;65524;-32
2021/01/29 04:50:12;;;;;;;21.70;14.95;;;;;;;30.58;42.05;101185.44;5077429;28;70152;-32
2021/01/29 04:52:45;;;;;;;27.73;15.35;;;;;;;30.61;41.98;101185.84;5077535;28;65807;-32
2021/01/29 04:55:41;;;;;;;30.70;15.43;;;;;;;30.42;42.09;101175.88;5074641;27;69806;-31
2021/01/29 04:58:33;;;;;;;32.33;14.68;;;;;;;30.32;41.17;101167.38;5069745;27;65679;-31
2021/01/29 05:02:08;;;;;;;24.08;14.13;;;;;;;30.27;40.61;101168.81;5037047;28;69223;-31
2021/01/29 05:05:06;;;;;;;20.02;13.20;;;;;;;30.09;39.68;101160.50;5057495;28;65401;-31
2021/01/29 05:08:08;;;;;;;23.98;12.80;;;;;;;29.99;39.20;101157.38;5077633;27;70277;-31
2021/01/29 05:11:50;;;;;;;22.42;12.50;;;;;;;29.78;38.16;101153.81;5022874;28;65912;-30
2021/01/29 05:14:44;;;;;;;27.58;12.43;;;;;;;29.71;38.07;101142.16;5069550;27;69252;-31
2021/01/29 05:17:36;;;;;;;26.00;11.85;;;;;;;29.62;37.76;101136.09;5077069;27;66712;-30
2021/01/29 05:20:28;;;;;;;18.15;12.82;;;;;;;29.61;38.11;101130.88;5077484;28;69078;-31
2021/01/29 05:23:24;;;;;;;28.55;13.25;;;;;;;29.50;37.15;101134.19;5076093;27;65857;-30
2021/01/29 05:26:10;;;;;;;27.85;12.85;;;;;;;29.27;36.54;101102.94;5074196;28;70039;-30
2021/01/29 05:28:51;;;;;;;14.73;12.15;;;;;;;29.40;37.41;101113.78;5078302;27;66188;-31
2021/01/29 05:31:39;;;;;;;19.77;11.98;;;;;;;29.36;37.00;101111.69;5078770;27;69042;-30
2021/01/29 05:34:24;;;;;;;13.20;11.90;;;;;;;29.30;36.42;101107.94;5066254;28;66145;-32
2021/01/29 05:36:58;;;;;;;17.10;11.10;;;;;;;29.30;36.49;101110.66;5076313;28;69883;-30
2021/01/29 05:39:51;;;;;;;16.70;11.77;;;;;;;29.22;35.53;101116.22;5074976;27;66743;-31
2021/01/29 05:42:41;;;;;;;12.27;11.07;;;;;;;29.13;35.80;101101.25;5068461;27;69135;-31
2021/01/29 05:45:32;;;;;;;13.23;11.75;;;;;;;29.17;36.27;101094.44;5075765;27;65144;-31
2021/01/29 05:48:12;;;;;;;12.73;11.47;;;;;;;29.16;36.09;101084.63;5074405;27;70087;-30
2021/01/29 05:51:19;;;;;;;17.00;10.77;;;;;;;29.10;35.87;101085.44;5076127;28;66022;-31
2021/01/29 05:53:58;;;;;;;15.57;11.65;;;;;;;29.13;36.08;101079.63;5078251;27;69761;-31
2021/01/29 05:56:50;;;;;;;16.85;12.20;;;;;;;29.11;36.41;101081.69;5076903;27;65405;-31
2021/01/29 05:59:55;;;;;;;12.27;10.98;;;;;;;29.08;35.95;101074.84;5060687;28;68893;-31
2021/01/29 06:02:25;;;;;;;14.55;11.13;;;;;;;29.12;36.20;101067.19;5076332;28;65975;-30
2021/01/29 06:05:33;;;;;;;11.43;10.43;;;;;;;29.06;35.70;101059.88;5077647;28;69293;-30
2021/01/29 06:08:32;;;;;;;12.27;11.10;;;;;;;29.05;36.02;101063.63;5075687;27;65480;-31
2021/01/29 06:11:56;;;;;;;17.15;12.13;;;;;;;29.03;35.64;101052.16;5067754;28;70251;-31
2021/01/29 06:14:59;;;;;;;11.77;10.45;;;;;;;29.05;35.13;101033.91;4985520;28;65516;-35
2021/01/29 06:18:04;;;;;;;14.57;10.68;;;;;;;29.04;35.51;101024.16;5078752;27;69428;-31
2021/01/29 06:20:59;;;;;;;11.95;10.70;;;;;;;29.02;34.87;101023.47;5078091;28;66371;-30
2021/01/29 06:24:00;;;;;;;11.88;10.65;;;;;;;29.02;35.02;101023.47;5079206;27;70761;-32
2021/01/29 06:27:13;;;;;;;11.15;10.20;;;;;;;28.99;35.18;101018.50;5069759;27;66111;-31
2021/01/29 06:30:05;;;;;;;11.68;10.30;;;;;;;29.03;34.92;101000.84;5032295;28;68699;-31
2021/01/29 06:33:05;;;;;;;10.95;10.05;;;;;;;28.98;34.89;101000.66;5081655;27;66078;-30
2021/01/29 06:35:54;;;;;;;12.98;11.13;;;;;;;28.89;35.11;100979.22;5065486;27;69254;-31
2021/01/29 06:38:36;;;;;;;11.07;10.07;;;;;;;29.03;34.89;100992.72;5077286;27;66128;-30
2021/01/29 06:41:29;;;;;;;10.65;9.85;;;;;;;29.04;34.81;100983.63;5063756;28;69839;-30
2021/01/29 06:44:10;;;;;;;10.63;9.73;;;;;;;29.06;35.20;100977.00;5069341;27;66206;-31
2021/01/29 06:47:15;;;;;;;11.13;10.27;;;;;;;29.03;34.64;100976.53;5087941;27;69968;-30
2021/01/29 06:50:25;;;;;;;11.07;9.95;;;;;;;29.03;34.58;100968.41;5079013;27;66045;-30
2021/01/29 06:53:30;;;;;;;11.50;9.52;;;;;;;29.01;34.46;100963.25;5074316;27;69912;-30
2021/01/29 06:56:22;;;;;;;11.60;10.02;;;;;;;29.06;34.37;100959.94;5066879;28;64537;-30
2021/01/29 06:59:05;;;;;;;10.48;9.55;;;;;;;29.08;34.72;100960.56;5073843;27;69820;-31
2021/01/29 07:01:57;;;;;;;11.50;9.68;;;;;;;29.06;34.37;100954.53;5080949;27;66036;-30
2021/01/29 07:04:42;;;;;;;18.10;9.93;;;;;;;29.06;34.27;100938.34;5079416;28;70109;-29
2021/01/29 07:07:32;;;;;;;10.90;9.43;;;;;;;29.06;34.33;100938.34;5079890;27;66245;-30
2021/01/29 07:10:05;;;;;;;10.82;10.00;;;;;;;29.12;34.54;100935.66;5073091;27;69264;-30
2021/01/29 07:13:09;;;;;;;12.05;10.35;;;;;;;29.09;34.59;100927.97;5067169;28;66429;-32
2021/01/29 07:15:59;;;;;;;12.52;10.30;;;;;;;29.14;34.49;100914.69;5076824;28;70193;-30
2021/01/29 07:18:56;;;;;;;14.60;9.38;;;;;;;29.13;33.78;100906.78;5087961;27;66141;-31
2021/01/29 07:21:36;;;;;;;14.27;10.10;;;;;;;29.14;34.37;100903.00;5050856;28;69606;-31
2021/01/29 07:24:37;;;;;;;14.35;10.43;;;;;;;29.15;34.31;100893.88;5077565;28;66031;-30
2021/01/29 07:27:23;;;;;;;9.57;8.93;;;;;;;29.21;34.16;100898.47;5073408;27;69821;-31
2021/01/29 07:30:42;;;;;;;13.30;9.63;;;;;;;29.22;34.01;100894.69;5069884;27;67017;-35
2021/01/29 07:33:28;;;;;;;11.40;10.38;;;;;;;29.26;34.13;100885.16;5070065;28;70656;-32
2021/01/29 07:36:28;;;;;;;10.18;9.38;;;;;;;29.24;34.00;100881.81;5079227;28;66271;-31
2021/01/29 07:38:59;;;;;;;14.70;9.85;;;;;;;29.28;34.17;100880.38;5080172;27;70087;-30
2021/01/29 07:41:52;;;;;;;11.18;10.05;;;;;;;29.31;34.11;100871.84;5073068;28;66028;-30
2021/01/29 07:44:41;;;;;;;10.88;9.77;;;;;;;29.32;33.62;100873.50;5068195;28;69722;-31
2021/01/29 07:47:22;;;;;;;13.60;9.68;;;;;;;29.34;33.14;100866.03;5078959;28;66114;-30
2021/01/29 07:50:14;;;;;;;11.93;9.45;;;;;;;29.37;33.77;100871.00;5075534;28;69494;-31
2021/01/29 07:53:15;;;;;;;10.73;9.70;;;;;;;29.40;33.79;100869.75;5084557;27;65248;-30
2021/01/29 07:56:04;;;;;;;10.38;9.50;;;;;;;29.41;33.64;100860.59;5067579;27;70270;-32
2021/01/29 07:58:47;;;;;;;9.82;9.00;;;;;;;29.43;33.43;100869.34;5077197;27;65869;-31
2021/01/29 08:01:42;;;;;;;10.88;8.88;;;;;;;29.48;33.46;100871.41;5079659;27;70553;-31
2021/01/29 08:04:47;;;;;;;16.70;9.32;;;;;;;29.50;33.38;100869.31;5071720;28;66612;-30
2021/01/29 08:07:25;;;;;;;19.23;8.70;;;;;;;29.42;33.65;100834.41;5076102;27;70035;-31
2021/01/29 08:10:02;;;;;;;14.43;9.73;;;;;;;29.55;33.92;100850.59;5072389;28;65869;-30
2021/01/29 08:12:41;;;;;;;13.32;12.05;;;;;;;29.68;39.51;100834.38;5062544;27;70567;-31
2021/01/29 08:15:42;;;;;;;17.48;12.98;;;;;;;30.09;41.41;100851.25;5068500;27;66097;-30
2021/01/29 08:18:28;;;;;;;13.48;12.10;;;;;;;30.37;40.37;100848.19;5073124;27;69307;-31
2021/01/29 08:21:10;;;;;;;20.25;13.18;;;;;;;30.62;39.13;100846.38;5077278;27;66559;-31
2021/01/29 08:24:14;;;;;;;35.40;14.77;;;;;;;30.86;38.91;100841.22;5057740;28;67731;-31
2021/01/29 08:26:48;;;;;;;20.05;13.27;;;;;;;31.08;38.70;100839.78;5070525;28;66002;-31
2021/01/29 08:29:53;;;;;;;17.92;13.13;;;;;;;31.23;40.91;100833.16;5080486;27;69913;-30
2021/01/29 08:33:08;;;;;;;24.83;15.45;;;;;;;31.49;37.68;100838.34;5057295;28;65973;-31
2021/01/29 08:36:02;;;;;;;27.63;15.50;;;;;;;31.63;37.78;100832.78;5073326;28;70041;-31
2021/01/29 08:39:14;;;;;;;21.50;15.30;;;;;;;31.78;39.03;100828.59;5074766;27;66577;-31
2021/01/29 08:42:05;;;;;;;33.13;17.63;;;;;;;31.89;36.83;100832.44;5069532;27;69233;-31
2021/01/29 08:44:54;;;;;;;43.33;17.13;;;;;;;32.03;37.14;100831.25;5077334;27;66181;-31
2021/01/29 08:47:51;;;;;;;38.92;16.55;;;;;;;32.21;36.30;100832.28;5077589;27;69036;-30
2021/01/29 08:50:47;;;;;;;28.98;16.20;;;;;;;32.34;36.25;100829.34;5076389;27;65040;-31
2021/01/29 08:53:54;;;;;;;30.88;16.10;;;;;;;32.43;37.13;100825.25;5064774;28;70683;-31
2021/01/29 08:56:39;;;;;;;27.63;15.25;;;;;;;32.54;37.51;100830.97;5064001;27;66411;-31
2021/01/29 08:59:15;;;;;;;31.13;16.08;;;;;;;32.70;37.76;100824.84;5076598;27;69867;-33
2021/01/29 09:01:49;;;;;;;24.45;14.77;;;;;;;32.77;38.06;100835.63;5071818;28;66233;-30
2021/01/29 09:04:19;;;;;;;37.92;16.52;;;;;;;32.79;37.72;100833.47;5064652;28;70021;-31
2021/01/29 09:06:53;;;;;;;24.90;16.15;;;;;;;32.83;38.13;100819.19;5079731;27;65957;-30
2021/01/29 09:09:29;;;;;;;35.38;17.95;;;;;;;32.90;38.01;100833.50;5077625;28;69189;-30
2021/01/29 09:12:03;;;;;;;31.27;16.70;;;;;;;33.02;38.18;100835.44;5083790;27;66060;-32
2021/01/29 09:14:41;;;;;;;50.47;18.30;;;;;;;32.93;37.60;100822.16;5067146;27;70088;-30
2021/01/29 09:17:20;;;;;;;43.10;18.25;;;;;;;33.07;37.92;100841.81;5077184;27;66216;-31
2021/01/29 09:20:02;;;;;;;43.42;18.05;;;;;;;33.16;37.95;100842.28;5077015;27;69930;-30
2021/01/29 09:23:06;;;;;;;43.45;18.38;;;;;;;33.17;38.24;100845.81;5078128;27;65246;-31
2021/01/29 09:26:02;;;;;;;37.00;18.27;;;;;;;33.26;38.60;100839.78;5078059;27;69967;-32
2021/01/29 09:28:41;;;;;;;56.17;19.52;;;;;;;33.30;38.41;100848.31;5069491;28;66868;-30
2021/01/29 09:31:23;;;;;;;42.40;18.10;;;;;;;33.17;38.49;100824.91;5077747;27;70124;-29
2021/01/29 09:34:15;;;;;;;39.08;17.15;;;;;;;33.29;39.27;100858.38;5071137;27;65641;-30
2021/01/29 09:36:54;;;;;;;40.72;18.20;;;;;;;33.20;39.27;100857.03;5065797;28;69947;-31
2021/01/29 09:39:54;;;;;;;33.72;17.15;;;;;;;33.13;39.52;100856.34;5066508;28;66145;-29
2021/01/29 09:42:48;;;;;;;46.50;18.35;;;;;;;33.05;39.84;100838.50;5067036;27;70440;-30
2021/01/29 09:45:24;;;;;;;30.02;17.45;;;;;;;33.14;39.79;100858.00;5044910;27;64477;-31
2021/01/29 09:48:02;;;;;;;31.85;18.02;;;;;;;33.10;40.04;100856.84;5077520;27;69164;-30
2021/01/29 09:50:34;;;;;;;36.47;17.85;;;;;;;33.10;39.60;100854.13;5074446;27;66630;-30
2021/01/29 09:53:07;;;;;;;33.03;17.37;;;;;;;33.06;39.90;100861.06;5083067;27;69449;-31
2021/01/29 09:55:56;;;;;;;44.58;17.08;;;;;;;33.09;40.19;100855.97;5079541;27;65457;-31
2021/01/29 09:58:40;;;;;;;34.60;17.63;;;;;;;33.18;40.16;100863.78;5079386;27;70056;-32
2021/01/29 10:01:22;;;;;;;28.88;16.65;;;;;;;33.31;40.26;100874.41;5072063;28;66142;-32
2021/01/29 10:04:28;;;;;;;36.70;16.85;;;;;;;33.29;39.76;100871.97;5080151;27;70954;-34
2021/01/29 10:07:11;;;;;;;27.10;16.98;;;;;;;33.38;39.58;100864.25;5032815;27;65264;-31
2021/01/29 10:09:59;;;;;;;27.30;16.83;;;;;;;33.44;39.61;100876.06;5077428;28;70117;-31
2021/01/29 10:12:33;;;;;;;48.28;17.95;;;;;;;33.33;39.51;100856.81;5077686;27;65178;-32
2021/01/29 10:15:07;;;;;;;23.48;16.30;;;;;;;33.46;39.41;100873.94;5073812;28;69209;-31
2021/01/29 10:17:46;;;;;;;26.95;17.38;;;;;;;33.44;39.65;100879.63;5079592;27;66116;-32
2021/01/29 10:20:26;;;;;;;31.98;17.13;;;;;;;33.43;39.21;100888.00;5075810;27;69130;-31
2021/01/29 10:23:04;;;;;;;27.35;16.88;;;;;;;33.43;39.67;100891.53;5052438;28;65233;-32
2021/01/29 10:25:56;;;;;;;28.00;17.33;;;;;;;33.45;39.49;100902.19;5083667;27;70472;-30
2021/01/29 10:28:45;;;;;;;28.73;16.80;;;;;;;33.43;39.22;100904.31;5079010;27;65430;-31
2021/01/29 10:31:18;;;;;;;25.20;16.85;;;;;;;33.43;39.52;100904.31;5073068;27;70451;-30
2021/01/29 10:34:02;;;;;;;24.02;16.75;;;;;;;33.30;39.35;100892.63;5076417;27;65465;-30
2021/01/29 10:36:35;;;;;;;24.73;17.15;;;;;;;33.41;39.55;100912.72;5077095;27;70262;-31
2021/01/29 10:39:13;;;;;;;40.85;17.73;;;;;;;33.42;39.69;100919.00;5073477;27;66080;-31
2021/01/29 10:41:59;;;;;;;28.00;17.55;;;;;;;33.33;39.62;100916.63;5070382;27;70448;-31
2021/01/29 10:44:33;;;;;;;32.90;18.15;;;;;;;33.24;39.93;100901.75;5070464;28;66135;-33
2021/01/29 10:47:28;;;;;;;35.40;17.40;;;;;;;33.35;40.62;100928.09;5070774;27;69467;-33
2021/01/29 10:50:29;;;;;;;36.88;17.77;;;;;;;33.36;40.45;100920.75;5079426;27;65462;-31
2021/01/29 10:53:22;;;;;;;35.50;18.75;;;;;;;33.36;41.47;100924.31;5071220;27;69781;-32
2021/01/29 10:56:04;;;;;;;44.38;17.70;;;;;;;33.37;41.37;100928.66;5068790;27;65324;-32
2021/01/29 10:58:53;;;;;;;31.15;17.60;;;;;;;33.30;41.43;100927.97;5067974;27;69049;-34
2021/01/29 11:01:33;;;;;;;46.70;19.52;;;;;;;33.18;41.42;100908.09;5070820;28;66708;-30
2021/01/29 11:04:28;;;;;;;48.13;19.27;;;;;;;33.30;42.69;100938.84;5064203;27;70062;-31
2021/01/29 11:07:25;;;;;;;37.60;18.42;;;;;;;33.20;42.49;100949.47;5080149;28;66141;-30
2021/01/29 11:10:20;;;;;;;40.13;17.52;;;;;;;33.26;42.48;100948.53;5078927;28;70322;-32
2021/01/29 11:12:56;;;;;;;31.63;17.63;;;;;;;33.25;42.69;100946.06;5077106;27;65607;-32
2021/01/29 11:15:35;;;;;;;38.05;17.92;;;;;;;33.25;42.27;100949.59;5073934;28;70957;-32
2021/01/29 11:18:22;;;;;;;38.92;18.05;;;;;;;33.12;42.54;100958.78;5080415;27;66139;-31
2021/01/29 11:21:06;;;;;;;40.28;18.52;;;;;;;33.01;42.52;100939.75;5079308;27;69109;-31
2021/01/29 11:23:45;;;;;;;32.15;16.98;;;;;;;33.17;42.83;100966.25;5082870;27;66091;-34
2021/01/29 11:26:29;;;;;;;31.40;17.33;;;;;;;33.13;42.52;100967.78;5065474;28;70542;-35
2021/01/29 11:29:10;;;;;;;36.63;16.80;;;;;;;33.03;43.29;100965.63;5063502;28;65477;-32
2021/01/29 11:32:01;;;;;;;34.97;17.63;;;;;;;33.07;42.95;100965.97;5062441;28;70561;-33
2021/01/29 11:34:35;;;;;;;43.27;17.03;;;;;;;33.02;42.98;100963.16;5065232;27;66209;-32
2021/01/29 11:37:20;;;;;;;40.35;16.75;;;;;;;33.03;43.54;100976.50;5064214;28;68977;-30
2021/01/29 11:40:12;;;;;;;57.90;17.33;;;;;;;32.85;44.33;100966.50;5064652;27;65140;-37
2021/01/29 11:42:51;;;;;;;44.88;16.52;;;;;;;32.94;44.67;100983.31;5066102;28;69909;-33
2021/01/29 11:45:30;;;;;;;52.33;15.65;;;;;;;32.78;44.98;100989.41;5060117;28;66043;-32
2021/01/29 11:48:16;;;;;;;28.02;16.73;;;;;;;32.67;46.42;100991.00;5048672;28;70001;-34
2021/01/29 11:50:56;;;;;;;40.15;17.42;;;;;;;32.75;45.96;100996.13;5065973;28;66554;-30
2021/01/29 11:53:35;;;;;;;51.10;17.50;;;;;;;32.79;45.68;101002.75;5069007;27;70715;-33
2021/01/29 11:56:18;;;;;;;50.45;18.25;;;;;;;32.85;45.63;101015.41;5065868;27;66528;-31
2021/01/29 11:59:00;;;;;;;44.85;17.83;;;;;;;32.85;45.68;101020.84;5065164;28;69875;-31
2021/01/29 12:02:07;;;;;;;49.80;20.10;;;;;;;32.86;45.79;101019.78;5061265;28;65340;-31
2021/01/29 12:04:52;;;;;;;47.28;18.50;;;;;;;32.87;45.43;101016.00;5027449;28;68359;-33
2021/01/29 12:07:34;;;;;;;38.83;17.25;;;;;;;32.70;45.72;101004.13;5063389;28;65309;-32
2021/01/29 12:10:27;;;;;;;33.22;17.63;;;;;;;32.67;45.52;101015.44;5066835;27;70442;-33
2021/01/29 12:13:16;;;;;;;32.50;17.58;;;;;;;32.80;45.18;101028.84;5068896;27;66221;-32
2021/01/29 12:16:01;;;;;;;43.92;17.70;;;;;;;32.80;45.28;101031.56;5067670;27;69194;-31
2021/01/29 12:18:36;;;;;;;44.97;18.85;;;;;;;32.77;44.98;101032.03;5056077;27;66522;-33
2021/01/29 12:21:09;;;;;;;36.00;17.27;;;;;;;32.78;45.08;101041.84;5065884;27;68802;-32
2021/01/29 12:24:04;;;;;;;28.00;16.95;;;;;;;32.70;45.39;101044.84;5062244;28;65928;-33
2021/01/29 12:27:04;;;;;;;32.10;17.17;;;;;;;32.69;45.43;101040.50;5048647;28;70532;-33
2021/01/29 12:29:48;;;;;;;35.60;17.17;;;;;;;32.71;45.47;101057.41;5072121;27;65434;-33
2021/01/29 12:32:22;;;;;;;32.80;17.00;;;;;;;32.72;45.09;101050.91;5067567;28;69799;-32
2021/01/29 12:35:43;;;;;;;32.03;16.88;;;;;;;32.68;45.26;101055.13;5063661;28;65763;-31
2021/01/29 12:38:50;;;;;;;31.67;16.15;;;;;;;32.60;45.17;101059.00;5054081;27;70236;-33
2021/01/29 12:41:51;;;;;;;27.60;16.38;;;;;;;32.63;45.09;101068.59;5062106;27;66281;-31
2021/01/29 12:44:22;;;;;;;27.33;15.55;;;;;;;32.62;45.31;101067.72;5054029;28;69450;-32
2021/01/29 12:47:18;;;;;;;27.63;15.63;;;;;;;32.36;45.10;101013.72;5075640;28;66627;-32